Terminal Aerodrome Forecast
Issued by NWS Pueblo, CO

Home | Current Version | Previous Version | Text Only | Print | Product List | Glossary On
Versions: 1 2 3 4 5 6 7 8 9 10 11 12 13 14 15 16 17 18 19 20 21 22 23 24 25 26 27 28 29 30 31 32
000
FTUS45 KPUB 230539
TAFALS
TAF
KALS 230539Z 2306/2406 20012G22KT P6SM FEW100 BKN200
     FM231500 22021G31KT P6SM SCT080
     FM231700 24025G35KT P6SM SCT080 SCT150
     FM240200 30010KT P6SM SCT050 SCT080=

USA.gov is the U.S. government's official web portal to all federal, state and local government web resources and services.